Starners Station, Pennsylvania
Current Conditions -  °F | °C
As of 1:53 AM on Saturday 29 Nov 2014 (Local Time) from KTHV Reporting Station
Clear Clear  
Wind Chill: 24°   Ceiling: Unl
Heat Index: 24°   Visibility: 10mi
Dew Point: 16°   Wind: 0mph
Humidity: 71%   Direction: NA
Pressure: 30.28"   Gusts: NA
Location:  40.0362°N, 77.1908°W
Report Text: KTHV 290653Z AUTO 00000KT 10SM CLR M04/M09 A3028 RMK AO2 SLP262 T10441089
Loading
Personal Weather Stations






























Interactive Weather Map New forecast layout! Learn more

10-Day Weather Forecast

Advertisements
Track Severe Weather on mobile